sensor_id;sensor_type;location;lat;lon;timestamp;P1;durP1;ratioP1;P2;durP2;ratioP2
73084;SDS011;62974;49.460;10.892;2023-04-25T00:02:04;2.30;;;1.48;;
73084;SDS011;62974;49.460;10.892;2023-04-25T00:04:33;4.30;;;1.90;;
73084;SDS011;62974;49.460;10.892;2023-04-25T00:07:02;3.85;;;1.60;;
73084;SDS011;62974;49.460;10.892;2023-04-25T00:09:30;2.70;;;1.27;;
73084;SDS011;62974;49.460;10.892;2023-04-25T00:11:57;4.60;;;1.60;;
73084;SDS011;62974;49.460;10.892;2023-04-25T00:14:25;3.78;;;2.00;;
73084;SDS011;62974;49.460;10.892;2023-04-25T00:19:21;3.05;;;0.90;;
73084;SDS011;62974;49.460;10.892;2023-04-25T00:21:48;3.85;;;1.88;;
73084;SDS011;62974;49.460;10.892;2023-04-25T00:24:17;2.78;;;1.65;;
73084;SDS011;62974;49.460;10.892;2023-04-25T00:26:45;3.08;;;1.63;;
73084;SDS011;62974;49.460;10.892;2023-04-25T00:29:12;4.25;;;1.63;;
73084;SDS011;62974;49.460;10.892;2023-04-25T00:31:40;3.58;;;1.50;;
73084;SDS011;62974;49.460;10.892;2023-04-25T00:34:07;2.63;;;1.25;;
73084;SDS011;62974;49.460;10.892;2023-04-25T00:36:35;1.88;;;1.33;;
73084;SDS011;62974;49.460;10.892;2023-04-25T00:39:04;3.45;;;1.83;;
73084;SDS011;62974;49.460;10.892;2023-04-25T00:41:33;2.78;;;1.20;;
73084;SDS011;62974;49.460;10.892;2023-04-25T00:44:01;1.55;;;1.08;;
73084;SDS011;62974;49.460;10.892;2023-04-25T00:46:31;3.15;;;1.60;;
73084;SDS011;62974;49.460;10.892;2023-04-25T00:48:58;3.25;;;1.73;;
73084;SDS011;62974;49.460;10.892;2023-04-25T00:51:26;2.60;;;1.52;;
73084;SDS011;62974;49.460;10.892;2023-04-25T00:53:53;3.10;;;1.33;;
73084;SDS011;62974;49.460;10.892;2023-04-25T00:56:21;2.97;;;1.30;;
73084;SDS011;62974;49.460;10.892;2023-04-25T00:58:50;2.22;;;1.30;;
73084;SDS011;62974;49.460;10.892;2023-04-25T01:01:22;3.20;;;1.38;;
73084;SDS011;62974;49.460;10.892;2023-04-25T01:03:50;2.25;;;1.27;;
73084;SDS011;62974;49.460;10.892;2023-04-25T01:06:20;3.28;;;1.52;;
73084;SDS011;62974;49.460;10.892;2023-04-25T01:08:48;2.25;;;1.38;;
73084;SDS011;62974;49.460;10.892;2023-04-25T01:11:15;2.67;;;1.38;;
73084;SDS011;62974;49.460;10.892;2023-04-25T01:13:43;3.55;;;1.27;;
73084;SDS011;62974;49.460;10.892;2023-04-25T01:16:12;3.22;;;1.20;;
73084;SDS011;62974;49.460;10.892;2023-04-25T01:18:40;2.88;;;1.48;;
73084;SDS011;62974;49.460;10.892;2023-04-25T01:21:10;3.10;;;1.50;;
73084;SDS011;62974;49.460;10.892;2023-04-25T01:23:39;2.45;;;1.38;;
73084;SDS011;62974;49.460;10.892;2023-04-25T01:26:08;3.30;;;1.88;;
73084;SDS011;62974;49.460;10.892;2023-04-25T01:28:37;2.63;;;1.33;;
73084;SDS011;62974;49.460;10.892;2023-04-25T01:31:07;3.38;;;1.52;;
73084;SDS011;62974;49.460;10.892;2023-04-25T01:33:34;3.95;;;1.38;;
73084;SDS011;62974;49.460;10.892;2023-04-25T01:36:02;2.75;;;1.60;;
73084;SDS011;62974;49.460;10.892;2023-04-25T01:38:32;1.75;;;0.90;;
73084;SDS011;62974;49.460;10.892;2023-04-25T01:40:59;2.30;;;1.42;;
73084;SDS011;62974;49.460;10.892;2023-04-25T01:43:27;3.67;;;1.40;;
73084;SDS011;62974;49.460;10.892;2023-04-25T01:45:55;3.13;;;1.70;;
73084;SDS011;62974;49.460;10.892;2023-04-25T01:48:23;4.45;;;1.35;;
73084;SDS011;62974;49.460;10.892;2023-04-25T01:50:51;3.72;;;1.70;;
73084;SDS011;62974;49.460;10.892;2023-04-25T01:53:18;3.85;;;1.77;;
73084;SDS011;62974;49.460;10.892;2023-04-25T01:55:47;2.22;;;1.23;;
73084;SDS011;62974;49.460;10.892;2023-04-25T01:58:15;4.22;;;1.65;;
73084;SDS011;62974;49.460;10.892;2023-04-25T02:00:42;3.42;;;1.85;;
73084;SDS011;62974;49.460;10.892;2023-04-25T02:03:10;1.77;;;0.98;;
73084;SDS011;62974;49.460;10.892;2023-04-25T02:05:38;2.85;;;1.52;;
73084;SDS011;62974;49.460;10.892;2023-04-25T02:08:07;3.35;;;1.50;;
73084;SDS011;62974;49.460;10.892;2023-04-25T02:10:35;3.30;;;1.80;;
73084;SDS011;62974;49.460;10.892;2023-04-25T02:13:04;3.03;;;1.83;;
73084;SDS011;62974;49.460;10.892;2023-04-25T02:15:32;4.50;;;1.92;;
73084;SDS011;62974;49.460;10.892;2023-04-25T02:18:00;3.50;;;1.98;;
73084;SDS011;62974;49.460;10.892;2023-04-25T02:20:28;2.53;;;1.48;;
73084;SDS011;62974;49.460;10.892;2023-04-25T02:22:57;3.10;;;1.55;;
73084;SDS011;62974;49.460;10.892;2023-04-25T02:25:25;3.42;;;1.95;;
73084;SDS011;62974;49.460;10.892;2023-04-25T02:27:53;3.88;;;1.65;;
73084;SDS011;62974;49.460;10.892;2023-04-25T02:30:22;3.90;;;1.45;;
73084;SDS011;62974;49.460;10.892;2023-04-25T02:32:49;3.50;;;1.52;;
73084;SDS011;62974;49.460;10.892;2023-04-25T02:35:17;2.72;;;1.63;;
73084;SDS011;62974;49.460;10.892;2023-04-25T02:37:45;3.72;;;1.70;;
73084;SDS011;62974;49.460;10.892;2023-04-25T02:40:12;5.03;;;1.88;;
73084;SDS011;62974;49.460;10.892;2023-04-25T02:42:40;3.78;;;1.67;;
73084;SDS011;62974;49.460;10.892;2023-04-25T02:45:08;2.60;;;1.10;;
73084;SDS011;62974;49.460;10.892;2023-04-25T02:47:37;3.33;;;1.73;;
73084;SDS011;62974;49.460;10.892;2023-04-25T02:50:05;3.22;;;1.92;;
73084;SDS011;62974;49.460;10.892;2023-04-25T02:52:33;4.80;;;1.83;;
73084;SDS011;62974;49.460;10.892;2023-04-25T02:55:01;3.17;;;1.50;;
73084;SDS011;62974;49.460;10.892;2023-04-25T02:57:28;2.63;;;1.45;;
73084;SDS011;62974;49.460;10.892;2023-04-25T02:59:56;3.90;;;1.85;;
73084;SDS011;62974;49.460;10.892;2023-04-25T03:02:23;3.80;;;1.60;;
73084;SDS011;62974;49.460;10.892;2023-04-25T03:04:52;3.03;;;1.83;;
73084;SDS011;62974;49.460;10.892;2023-04-25T03:07:20;3.88;;;1.70;;
73084;SDS011;62974;49.460;10.892;2023-04-25T03:09:47;2.92;;;1.50;;
73084;SDS011;62974;49.460;10.892;2023-04-25T03:12:15;4.95;;;2.03;;
73084;SDS011;62974;49.460;10.892;2023-04-25T03:14:43;4.32;;;2.28;;
73084;SDS011;62974;49.460;10.892;2023-04-25T03:17:10;3.97;;;2.10;;
73084;SDS011;62974;49.460;10.892;2023-04-25T03:19:38;3.88;;;1.88;;
73084;SDS011;62974;49.460;10.892;2023-04-25T03:22:06;5.65;;;1.85;;
73084;SDS011;62974;49.460;10.892;2023-04-25T03:24:34;4.10;;;1.60;;
73084;SDS011;62974;49.460;10.892;2023-04-25T03:27:03;7.65;;;3.03;;
73084;SDS011;62974;49.460;10.892;2023-04-25T03:29:30;3.63;;;1.67;;
73084;SDS011;62974;49.460;10.892;2023-04-25T03:31:58;4.07;;;2.17;;
73084;SDS011;62974;49.460;10.892;2023-04-25T03:34:25;5.25;;;2.67;;
73084;SDS011;62974;49.460;10.892;2023-04-25T03:36:53;6.40;;;2.85;;
73084;SDS011;62974;49.460;10.892;2023-04-25T03:39:22;7.43;;;2.95;;
73084;SDS011;62974;49.460;10.892;2023-04-25T03:41:49;7.07;;;2.75;;
73084;SDS011;62974;49.460;10.892;2023-04-25T03:44:17;5.55;;;2.70;;
73084;SDS011;62974;49.460;10.892;2023-04-25T03:46:44;7.90;;;2.88;;
73084;SDS011;62974;49.460;10.892;2023-04-25T03:49:12;6.55;;;2.53;;
73084;SDS011;62974;49.460;10.892;2023-04-25T03:51:44;6.28;;;2.50;;
73084;SDS011;62974;49.460;10.892;2023-04-25T03:54:11;6.25;;;2.90;;
73084;SDS011;62974;49.460;10.892;2023-04-25T03:56:40;4.28;;;2.75;;
73084;SDS011;62974;49.460;10.892;2023-04-25T03:59:08;4.72;;;2.65;;
73084;SDS011;62974;49.460;10.892;2023-04-25T04:01:35;1.30;;;0.57;;
73084;SDS011;62974;49.460;10.892;2023-04-25T04:04:03;6.00;;;2.45;;
73084;SDS011;62974;49.460;10.892;2023-04-25T04:06:31;4.95;;;2.38;;
73084;SDS011;62974;49.460;10.892;2023-04-25T04:08:59;5.25;;;2.55;;
73084;SDS011;62974;49.460;10.892;2023-04-25T04:11:26;6.22;;;2.90;;
73084;SDS011;62974;49.460;10.892;2023-04-25T04:13:55;5.38;;;2.95;;
73084;SDS011;62974;49.460;10.892;2023-04-25T04:16:23;7.55;;;3.28;;
73084;SDS011;62974;49.460;10.892;2023-04-25T04:18:51;4.00;;;2.28;;
73084;SDS011;62974;49.460;10.892;2023-04-25T04:21:18;4.55;;;2.47;;
73084;SDS011;62974;49.460;10.892;2023-04-25T04:23:46;7.82;;;3.47;;
73084;SDS011;62974;49.460;10.892;2023-04-25T04:26:14;6.10;;;2.95;;
73084;SDS011;62974;49.460;10.892;2023-04-25T04:28:42;7.90;;;4.43;;
73084;SDS011;62974;49.460;10.892;2023-04-25T04:31:12;9.85;;;3.15;;
73084;SDS011;62974;49.460;10.892;2023-04-25T04:33:43;5.88;;;2.97;;
73084;SDS011;62974;49.460;10.892;2023-04-25T04:36:10;7.07;;;3.88;;
73084;SDS011;62974;49.460;10.892;2023-04-25T04:38:38;4.65;;;3.22;;
73084;SDS011;62974;49.460;10.892;2023-04-25T04:41:07;4.80;;;3.35;;
73084;SDS011;62974;49.460;10.892;2023-04-25T04:43:35;6.00;;;2.90;;
73084;SDS011;62974;49.460;10.892;2023-04-25T04:46:02;7.05;;;3.00;;
73084;SDS011;62974;49.460;10.892;2023-04-25T04:48:32;5.85;;;3.55;;
73084;SDS011;62974;49.460;10.892;2023-04-25T04:51:00;5.70;;;2.92;;
73084;SDS011;62974;49.460;10.892;2023-04-25T04:53:27;5.95;;;2.83;;
73084;SDS011;62974;49.460;10.892;2023-04-25T04:55:55;6.22;;;4.18;;
73084;SDS011;62974;49.460;10.892;2023-04-25T04:58:22;7.20;;;4.55;;
73084;SDS011;62974;49.460;10.892;2023-04-25T05:00:50;6.03;;;3.88;;
73084;SDS011;62974;49.460;10.892;2023-04-25T05:03:18;7.90;;;4.80;;
73084;SDS011;62974;49.460;10.892;2023-04-25T05:05:47;8.68;;;3.45;;
73084;SDS011;62974;49.460;10.892;2023-04-25T05:08:14;5.90;;;3.28;;
73084;SDS011;62974;49.460;10.892;2023-04-25T05:10:42;5.63;;;3.00;;
73084;SDS011;62974;49.460;10.892;2023-04-25T05:13:09;6.88;;;3.65;;
73084;SDS011;62974;49.460;10.892;2023-04-25T05:15:37;4.80;;;3.10;;
73084;SDS011;62974;49.460;10.892;2023-04-25T05:18:04;6.90;;;2.90;;
73084;SDS011;62974;49.460;10.892;2023-04-25T05:20:32;4.50;;;2.33;;
73084;SDS011;62974;49.460;10.892;2023-04-25T05:23:01;6.22;;;3.03;;
73084;SDS011;62974;49.460;10.892;2023-04-25T05:25:28;6.97;;;3.00;;
73084;SDS011;62974;49.460;10.892;2023-04-25T05:27:56;7.35;;;3.55;;
73084;SDS011;62974;49.460;10.892;2023-04-25T05:30:24;8.68;;;2.90;;
73084;SDS011;62974;49.460;10.892;2023-04-25T05:32:51;7.22;;;3.58;;
73084;SDS011;62974;49.460;10.892;2023-04-25T05:35:19;6.78;;;3.35;;
73084;SDS011;62974;49.460;10.892;2023-04-25T05:37:47;6.53;;;2.83;;
73084;SDS011;62974;49.460;10.892;2023-04-25T05:40:15;6.38;;;2.60;;
73084;SDS011;62974;49.460;10.892;2023-04-25T05:42:43;4.97;;;2.40;;
73084;SDS011;62974;49.460;10.892;2023-04-25T05:45:10;7.05;;;3.25;;
73084;SDS011;62974;49.460;10.892;2023-04-25T05:47:38;6.68;;;3.35;;
73084;SDS011;62974;49.460;10.892;2023-04-25T05:50:06;5.10;;;3.17;;
73084;SDS011;62974;49.460;10.892;2023-04-25T05:52:34;6.40;;;3.30;;
73084;SDS011;62974;49.460;10.892;2023-04-25T05:55:02;6.18;;;3.28;;
73084;SDS011;62974;49.460;10.892;2023-04-25T05:57:31;8.07;;;3.53;;
73084;SDS011;62974;49.460;10.892;2023-04-25T05:59:59;6.72;;;3.28;;
73084;SDS011;62974;49.460;10.892;2023-04-25T06:02:26;7.78;;;4.13;;
73084;SDS011;62974;49.460;10.892;2023-04-25T06:04:54;9.40;;;3.58;;
73084;SDS011;62974;49.460;10.892;2023-04-25T06:07:22;6.78;;;3.00;;
73084;SDS011;62974;49.460;10.892;2023-04-25T06:09:49;8.20;;;3.22;;
73084;SDS011;62974;49.460;10.892;2023-04-25T06:12:17;6.70;;;2.83;;
73084;SDS011;62974;49.460;10.892;2023-04-25T06:14:45;5.28;;;3.05;;
73084;SDS011;62974;49.460;10.892;2023-04-25T06:17:13;7.63;;;3.42;;
73084;SDS011;62974;49.460;10.892;2023-04-25T06:19:41;9.57;;;4.85;;
73084;SDS011;62974;49.460;10.892;2023-04-25T06:22:09;5.57;;;3.10;;
73084;SDS011;62974;49.460;10.892;2023-04-25T06:24:37;7.68;;;3.75;;
73084;SDS011;62974;49.460;10.892;2023-04-25T06:27:04;7.28;;;3.60;;
73084;SDS011;62974;49.460;10.892;2023-04-25T06:29:32;6.63;;;3.45;;
73084;SDS011;62974;49.460;10.892;2023-04-25T06:32:01;8.43;;;4.60;;
73084;SDS011;62974;49.460;10.892;2023-04-25T06:36:56;8.02;;;4.47;;
73084;SDS011;62974;49.460;10.892;2023-04-25T06:39:23;11.75;;;4.03;;
73084;SDS011;62974;49.460;10.892;2023-04-25T06:41:51;7.15;;;3.28;;
73084;SDS011;62974;49.460;10.892;2023-04-25T06:44:19;8.30;;;3.92;;
73084;SDS011;62974;49.460;10.892;2023-04-25T06:46:49;7.55;;;3.47;;
73084;SDS011;62974;49.460;10.892;2023-04-25T06:49:18;9.52;;;3.70;;
73084;SDS011;62974;49.460;10.892;2023-04-25T06:54:13;4.55;;;2.38;;
73084;SDS011;62974;49.460;10.892;2023-04-25T06:56:40;5.32;;;2.65;;
73084;SDS011;62974;49.460;10.892;2023-04-25T06:59:08;8.98;;;5.32;;
73084;SDS011;62974;49.460;10.892;2023-04-25T07:01:35;6.97;;;3.85;;
73084;SDS011;62974;49.460;10.892;2023-04-25T07:04:03;22.60;;;9.65;;
73084;SDS011;62974;49.460;10.892;2023-04-25T07:06:32;24.75;;;14.82;;
73084;SDS011;62974;49.460;10.892;2023-04-25T07:11:27;8.77;;;4.65;;
73084;SDS011;62974;49.460;10.892;2023-04-25T07:13:54;4.40;;;2.28;;
73084;SDS011;62974;49.460;10.892;2023-04-25T07:16:22;5.07;;;2.97;;
73084;SDS011;62974;49.460;10.892;2023-04-25T07:18:49;5.15;;;3.03;;
73084;SDS011;62974;49.460;10.892;2023-04-25T07:21:17;5.22;;;2.95;;
73084;SDS011;62974;49.460;10.892;2023-04-25T07:23:46;3.63;;;1.98;;
73084;SDS011;62974;49.460;10.892;2023-04-25T07:26:13;6.65;;;3.05;;
73084;SDS011;62974;49.460;10.892;2023-04-25T07:28:41;5.65;;;3.08;;
73084;SDS011;62974;49.460;10.892;2023-04-25T07:31:09;6.00;;;3.30;;
73084;SDS011;62974;49.460;10.892;2023-04-25T07:33:36;4.57;;;2.67;;
73084;SDS011;62974;49.460;10.892;2023-04-25T07:36:04;5.32;;;3.45;;
73084;SDS011;62974;49.460;10.892;2023-04-25T07:38:32;6.60;;;3.17;;
73084;SDS011;62974;49.460;10.892;2023-04-25T07:41:03;7.22;;;2.85;;
73084;SDS011;62974;49.460;10.892;2023-04-25T07:43:31;5.85;;;2.28;;
73084;SDS011;62974;49.460;10.892;2023-04-25T07:45:58;3.80;;;2.50;;
73084;SDS011;62974;49.460;10.892;2023-04-25T07:48:26;3.10;;;1.70;;
73084;SDS011;62974;49.460;10.892;2023-04-25T07:50:54;4.55;;;1.80;;
73084;SDS011;62974;49.460;10.892;2023-04-25T07:53:21;4.35;;;2.42;;
73084;SDS011;62974;49.460;10.892;2023-04-25T07:55:48;3.67;;;2.25;;
73084;SDS011;62974;49.460;10.892;2023-04-25T07:58:18;3.28;;;1.35;;
73084;SDS011;62974;49.460;10.892;2023-04-25T08:00:47;3.10;;;1.80;;
73084;SDS011;62974;49.460;10.892;2023-04-25T08:03:15;3.85;;;1.73;;
73084;SDS011;62974;49.460;10.892;2023-04-25T08:05:43;4.82;;;2.13;;
73084;SDS011;62974;49.460;10.892;2023-04-25T08:08:12;4.85;;;1.90;;
73084;SDS011;62974;49.460;10.892;2023-04-25T08:10:40;2.60;;;1.55;;
73084;SDS011;62974;49.460;10.892;2023-04-25T08:13:09;2.80;;;1.50;;
73084;SDS011;62974;49.460;10.892;2023-04-25T08:15:37;5.25;;;1.75;;
73084;SDS011;62974;49.460;10.892;2023-04-25T08:18:05;4.47;;;2.15;;
73084;SDS011;62974;49.460;10.892;2023-04-25T08:20:33;5.25;;;1.90;;
73084;SDS011;62974;49.460;10.892;2023-04-25T08:23:00;2.72;;;1.45;;
73084;SDS011;62974;49.460;10.892;2023-04-25T08:25:28;5.15;;;1.83;;
73084;SDS011;62974;49.460;10.892;2023-04-25T08:27:55;4.50;;;2.05;;
73084;SDS011;62974;49.460;10.892;2023-04-25T08:30:25;4.30;;;1.75;;
73084;SDS011;62974;49.460;10.892;2023-04-25T08:32:54;3.10;;;1.85;;
73084;SDS011;62974;49.460;10.892;2023-04-25T08:35:22;4.88;;;2.60;;
73084;SDS011;62974;49.460;10.892;2023-04-25T08:37:49;3.22;;;1.83;;
73084;SDS011;62974;49.460;10.892;2023-04-25T08:40:17;4.18;;;2.40;;
73084;SDS011;62974;49.460;10.892;2023-04-25T08:42:52;4.88;;;2.28;;
73084;SDS011;62974;49.460;10.892;2023-04-25T08:45:20;5.93;;;2.70;;
73084;SDS011;62974;49.460;10.892;2023-04-25T08:47:48;5.15;;;2.40;;
73084;SDS011;62974;49.460;10.892;2023-04-25T08:50:21;5.47;;;2.78;;
73084;SDS011;62974;49.460;10.892;2023-04-25T08:52:49;6.68;;;2.95;;
73084;SDS011;62974;49.460;10.892;2023-04-25T08:55:18;6.38;;;3.10;;
73084;SDS011;62974;49.460;10.892;2023-04-25T08:57:47;6.22;;;3.33;;
73084;SDS011;62974;49.460;10.892;2023-04-25T09:00:16;5.13;;;3.00;;
73084;SDS011;62974;49.460;10.892;2023-04-25T09:02:46;5.38;;;3.53;;
73084;SDS011;62974;49.460;10.892;2023-04-25T09:07:43;5.70;;;2.88;;
73084;SDS011;62974;49.460;10.892;2023-04-25T09:10:13;8.18;;;4.03;;
73084;SDS011;62974;49.460;10.892;2023-04-25T09:12:40;5.72;;;3.08;;
73084;SDS011;62974;49.460;10.892;2023-04-25T09:15:09;7.88;;;3.83;;
73084;SDS011;62974;49.460;10.892;2023-04-25T09:17:46;7.70;;;2.92;;
73084;SDS011;62974;49.460;10.892;2023-04-25T09:20:22;5.70;;;2.95;;
73084;SDS011;62974;49.460;10.892;2023-04-25T09:25:33;6.97;;;3.30;;
73084;SDS011;62974;49.460;10.892;2023-04-25T09:28:03;6.30;;;3.60;;
73084;SDS011;62974;49.460;10.892;2023-04-25T09:30:32;7.13;;;3.25;;
73084;SDS011;62974;49.460;10.892;2023-04-25T09:33:04;8.60;;;3.58;;
73084;SDS011;62974;49.460;10.892;2023-04-25T09:35:36;7.85;;;3.58;;
73084;SDS011;62974;49.460;10.892;2023-04-25T09:38:10;5.57;;;3.20;;
73084;SDS011;62974;49.460;10.892;2023-04-25T09:40:40;7.03;;;3.17;;
73084;SDS011;62974;49.460;10.892;2023-04-25T09:43:18;3.30;;;1.27;;
73084;SDS011;62974;49.460;10.892;2023-04-25T09:45:47;6.50;;;3.30;;
73084;SDS011;62974;49.460;10.892;2023-04-25T09:48:16;9.20;;;3.47;;
73084;SDS011;62974;49.460;10.892;2023-04-25T09:50:45;7.85;;;4.35;;
73084;SDS011;62974;49.460;10.892;2023-04-25T09:53:14;5.90;;;3.53;;
73084;SDS011;62974;49.460;10.892;2023-04-25T09:55:41;3.97;;;1.98;;
73084;SDS011;62974;49.460;10.892;2023-04-25T09:58:11;6.50;;;3.22;;
73084;SDS011;62974;49.460;10.892;2023-04-25T10:00:41;4.45;;;2.40;;
73084;SDS011;62974;49.460;10.892;2023-04-25T10:03:08;5.78;;;2.38;;
73084;SDS011;62974;49.460;10.892;2023-04-25T10:05:38;4.78;;;2.83;;
73084;SDS011;62974;49.460;10.892;2023-04-25T10:08:07;6.60;;;2.95;;
73084;SDS011;62974;49.460;10.892;2023-04-25T10:10:36;6.93;;;2.85;;
73084;SDS011;62974;49.460;10.892;2023-04-25T10:13:05;4.85;;;2.90;;
73084;SDS011;62974;49.460;10.892;2023-04-25T10:15:34;6.50;;;2.85;;
73084;SDS011;62974;49.460;10.892;2023-04-25T10:18:05;3.70;;;1.73;;
73084;SDS011;62974;49.460;10.892;2023-04-25T10:20:33;7.90;;;2.53;;
73084;SDS011;62974;49.460;10.892;2023-04-25T10:23:03;4.35;;;2.25;;
73084;SDS011;62974;49.460;10.892;2023-04-25T10:25:39;3.95;;;1.83;;
73084;SDS011;62974;49.460;10.892;2023-04-25T10:28:08;4.10;;;2.22;;
73084;SDS011;62974;49.460;10.892;2023-04-25T10:30:36;4.82;;;1.85;;
73084;SDS011;62974;49.460;10.892;2023-04-25T10:33:08;7.35;;;2.25;;
73084;SDS011;62974;49.460;10.892;2023-04-25T10:35:44;3.60;;;2.10;;
73084;SDS011;62974;49.460;10.892;2023-04-25T10:38:13;3.15;;;1.48;;
73084;SDS011;62974;49.460;10.892;2023-04-25T10:40:42;3.90;;;1.55;;
73084;SDS011;62974;49.460;10.892;2023-04-25T10:43:33;3.97;;;1.75;;
73084;SDS011;62974;49.460;10.892;2023-04-25T10:46:03;2.92;;;1.35;;
73084;SDS011;62974;49.460;10.892;2023-04-25T10:48:43;3.97;;;1.85;;
73084;SDS011;62974;49.460;10.892;2023-04-25T10:51:17;1.83;;;1.02;;
73084;SDS011;62974;49.460;10.892;2023-04-25T10:56:28;2.03;;;1.08;;
73084;SDS011;62974;49.460;10.892;2023-04-25T10:59:04;4.75;;;2.10;;
73084;SDS011;62974;49.460;10.892;2023-04-25T11:01:37;1.55;;;1.00;;
73084;SDS011;62974;49.460;10.892;2023-04-25T11:04:06;2.85;;;1.02;;
73084;SDS011;62974;49.460;10.892;2023-04-25T11:06:46;2.60;;;1.42;;
73084;SDS011;62974;49.460;10.892;2023-04-25T11:09:33;2.20;;;1.17;;
73084;SDS011;62974;49.460;10.892;2023-04-25T11:12:02;2.85;;;1.30;;
73084;SDS011;62974;49.460;10.892;2023-04-25T11:14:30;2.63;;;1.17;;
73084;SDS011;62974;49.460;10.892;2023-04-25T11:16:57;4.13;;;1.75;;
73084;SDS011;62974;49.460;10.892;2023-04-25T11:19:26;3.05;;;1.30;;
73084;SDS011;62974;49.460;10.892;2023-04-25T11:21:55;3.42;;;1.17;;
73084;SDS011;62974;49.460;10.892;2023-04-25T11:24:25;2.55;;;0.85;;
73084;SDS011;62974;49.460;10.892;2023-04-25T11:26:53;1.88;;;0.90;;
73084;SDS011;62974;49.460;10.892;2023-04-25T11:29:23;2.50;;;0.82;;
73084;SDS011;62974;49.460;10.892;2023-04-25T11:31:50;1.90;;;0.90;;
73084;SDS011;62974;49.460;10.892;2023-04-25T11:34:18;1.15;;;0.70;;
73084;SDS011;62974;49.460;10.892;2023-04-25T11:36:45;3.20;;;1.00;;
73084;SDS011;62974;49.460;10.892;2023-04-25T11:39:13;2.50;;;1.20;;
73084;SDS011;62974;49.460;10.892;2023-04-25T11:41:41;4.00;;;1.27;;
73084;SDS011;62974;49.460;10.892;2023-04-25T11:44:11;1.55;;;0.77;;
73084;SDS011;62974;49.460;10.892;2023-04-25T11:46:40;1.88;;;0.70;;
73084;SDS011;62974;49.460;10.892;2023-04-25T11:49:08;2.38;;;0.93;;
73084;SDS011;62974;49.460;10.892;2023-04-25T11:51:38;1.67;;;1.17;;
73084;SDS011;62974;49.460;10.892;2023-04-25T11:54:06;1.10;;;0.70;;
73084;SDS011;62974;49.460;10.892;2023-04-25T11:56:34;2.20;;;0.70;;
73084;SDS011;62974;49.460;10.892;2023-04-25T11:59:02;2.80;;;1.10;;
73084;SDS011;62974;49.460;10.892;2023-04-25T12:01:31;2.35;;;0.70;;
73084;SDS011;62974;49.460;10.892;2023-04-25T12:04:10;1.50;;;0.90;;
73084;SDS011;62974;49.460;10.892;2023-04-25T12:06:40;2.42;;;1.20;;
73084;SDS011;62974;49.460;10.892;2023-04-25T12:09:09;1.95;;;0.90;;
73084;SDS011;62974;49.460;10.892;2023-04-25T12:11:42;0.43;;;0.20;;
73084;SDS011;62974;49.460;10.892;2023-04-25T12:14:10;2.80;;;1.30;;
73084;SDS011;62974;49.460;10.892;2023-04-25T12:16:41;0.95;;;0.60;;
73084;SDS011;62974;49.460;10.892;2023-04-25T12:19:14;1.35;;;1.00;;
73084;SDS011;62974;49.460;10.892;2023-04-25T12:21:42;2.50;;;1.35;;
73084;SDS011;62974;49.460;10.892;2023-04-25T12:24:24;1.60;;;0.82;;
73084;SDS011;62974;49.460;10.892;2023-04-25T12:26:55;2.78;;;1.52;;
73084;SDS011;62974;49.460;10.892;2023-04-25T12:29:27;3.33;;;1.15;;
73084;SDS011;62974;49.460;10.892;2023-04-25T12:32:07;3.63;;;1.45;;
73084;SDS011;62974;49.460;10.892;2023-04-25T12:34:36;1.48;;;0.90;;
73084;SDS011;62974;49.460;10.892;2023-04-25T12:37:04;2.90;;;1.52;;
73084;SDS011;62974;49.460;10.892;2023-04-25T12:39:31;1.67;;;1.00;;
73084;SDS011;62974;49.460;10.892;2023-04-25T12:41:59;6.47;;;1.48;;
73084;SDS011;62974;49.460;10.892;2023-04-25T12:44:27;2.58;;;1.02;;
73084;SDS011;62974;49.460;10.892;2023-04-25T12:46:54;2.20;;;1.10;;
73084;SDS011;62974;49.460;10.892;2023-04-25T12:49:22;3.08;;;1.50;;
73084;SDS011;62974;49.460;10.892;2023-04-25T12:51:51;3.65;;;1.15;;
73084;SDS011;62974;49.460;10.892;2023-04-25T12:54:18;2.58;;;1.20;;
73084;SDS011;62974;49.460;10.892;2023-04-25T12:56:46;2.15;;;1.10;;
73084;SDS011;62974;49.460;10.892;2023-04-25T12:59:14;2.15;;;0.90;;
73084;SDS011;62974;49.460;10.892;2023-04-25T13:01:41;2.70;;;1.38;;
73084;SDS011;62974;49.460;10.892;2023-04-25T13:04:09;2.28;;;1.25;;
73084;SDS011;62974;49.460;10.892;2023-04-25T13:06:36;0.77;;;0.68;;
73084;SDS011;62974;49.460;10.892;2023-04-25T13:09:05;2.83;;;1.10;;
73084;SDS011;62974;49.460;10.892;2023-04-25T13:11:33;2.88;;;1.40;;
73084;SDS011;62974;49.460;10.892;2023-04-25T13:14:01;2.72;;;1.35;;
73084;SDS011;62974;49.460;10.892;2023-04-25T13:16:29;3.65;;;1.58;;
73084;SDS011;62974;49.460;10.892;2023-04-25T13:18:57;3.03;;;1.60;;
73084;SDS011;62974;49.460;10.892;2023-04-25T13:21:25;3.47;;;1.27;;
73084;SDS011;62974;49.460;10.892;2023-04-25T13:23:53;1.63;;;0.75;;
73084;SDS011;62974;49.460;10.892;2023-04-25T13:26:22;3.30;;;1.30;;
73084;SDS011;62974;49.460;10.892;2023-04-25T13:28:49;1.85;;;1.13;;
73084;SDS011;62974;49.460;10.892;2023-04-25T13:31:17;1.70;;;1.15;;
73084;SDS011;62974;49.460;10.892;2023-04-25T13:33:44;3.25;;;1.27;;
73084;SDS011;62974;49.460;10.892;2023-04-25T13:36:12;2.72;;;1.40;;
73084;SDS011;62974;49.460;10.892;2023-04-25T13:38:39;4.28;;;2.05;;
73084;SDS011;62974;49.460;10.892;2023-04-25T13:41:09;4.60;;;1.73;;
73084;SDS011;62974;49.460;10.892;2023-04-25T13:43:41;3.45;;;1.83;;
73084;SDS011;62974;49.460;10.892;2023-04-25T13:46:08;2.40;;;1.30;;
73084;SDS011;62974;49.460;10.892;2023-04-25T13:48:56;2.88;;;1.23;;
73084;SDS011;62974;49.460;10.892;2023-04-25T13:51:35;3.63;;;1.60;;
73084;SDS011;62974;49.460;10.892;2023-04-25T13:54:03;4.72;;;1.55;;
73084;SDS011;62974;49.460;10.892;2023-04-25T13:56:30;2.38;;;1.05;;
73084;SDS011;62974;49.460;10.892;2023-04-25T13:58:59;2.53;;;1.10;;
73084;SDS011;62974;49.460;10.892;2023-04-25T14:01:27;2.38;;;1.38;;
73084;SDS011;62974;49.460;10.892;2023-04-25T14:03:56;2.22;;;1.00;;
73084;SDS011;62974;49.460;10.892;2023-04-25T14:06:24;3.78;;;1.45;;
73084;SDS011;62974;49.460;10.892;2023-04-25T14:08:52;3.88;;;1.52;;
73084;SDS011;62974;49.460;10.892;2023-04-25T14:11:19;3.20;;;1.83;;
73084;SDS011;62974;49.460;10.892;2023-04-25T14:13:47;4.70;;;1.75;;
73084;SDS011;62974;49.460;10.892;2023-04-25T14:16:16;5.28;;;2.45;;
73084;SDS011;62974;49.460;10.892;2023-04-25T14:18:44;4.10;;;1.17;;
73084;SDS011;62974;49.460;10.892;2023-04-25T14:21:12;2.28;;;1.23;;
73084;SDS011;62974;49.460;10.892;2023-04-25T14:23:39;4.15;;;2.00;;
73084;SDS011;62974;49.460;10.892;2023-04-25T14:26:07;3.35;;;1.40;;
73084;SDS011;62974;49.460;10.892;2023-04-25T14:28:38;3.85;;;1.90;;
73084;SDS011;62974;49.460;10.892;2023-04-25T14:31:05;2.25;;;1.40;;
73084;SDS011;62974;49.460;10.892;2023-04-25T14:33:34;4.00;;;1.60;;
73084;SDS011;62974;49.460;10.892;2023-04-25T14:36:04;3.25;;;1.60;;
73084;SDS011;62974;49.460;10.892;2023-04-25T14:38:31;4.22;;;2.00;;
73084;SDS011;62974;49.460;10.892;2023-04-25T14:40:59;4.00;;;1.80;;
73084;SDS011;62974;49.460;10.892;2023-04-25T14:43:27;3.03;;;1.73;;
73084;SDS011;62974;49.460;10.892;2023-04-25T14:45:54;3.75;;;1.88;;
73084;SDS011;62974;49.460;10.892;2023-04-25T14:48:23;4.25;;;1.65;;
73084;SDS011;62974;49.460;10.892;2023-04-25T14:50:53;4.35;;;1.65;;
73084;SDS011;62974;49.460;10.892;2023-04-25T14:53:21;3.15;;;1.80;;
73084;SDS011;62974;49.460;10.892;2023-04-25T14:55:48;3.03;;;1.35;;
73084;SDS011;62974;49.460;10.892;2023-04-25T14:58:16;2.45;;;1.55;;
73084;SDS011;62974;49.460;10.892;2023-04-25T15:00:43;4.18;;;1.80;;